createdAt,value
2019-05-28T00:00:25.958Z,14.10
2019-05-28T00:02:53.827Z,14.10
2019-05-28T00:05:21.353Z,14.00
2019-05-28T00:07:48.931Z,14.00
2019-05-28T00:10:16.723Z,14.00
2019-05-28T00:12:44.286Z,14.00
2019-05-28T00:15:11.869Z,13.90
2019-05-28T00:17:39.420Z,13.90
2019-05-28T00:20:07.247Z,13.80
2019-05-28T00:22:35.121Z,13.80
2019-05-28T00:25:02.776Z,13.80
2019-05-28T00:27:30.511Z,13.70
2019-05-28T00:29:58.034Z,13.70
2019-05-28T00:32:25.585Z,13.70
2019-05-28T00:34:53.151Z,13.70
2019-05-28T00:37:20.708Z,13.60
2019-05-28T00:39:48.237Z,13.60
2019-05-28T00:42:15.802Z,13.60
2019-05-28T00:44:43.361Z,13.60
2019-05-28T00:47:11.197Z,13.50
2019-05-28T00:49:39.180Z,13.50
2019-05-28T00:52:06.794Z,13.50
2019-05-28T00:54:34.375Z,13.40
2019-05-28T00:57:02.334Z,13.50
2019-05-28T00:59:30.557Z,13.40
2019-05-28T01:01:58.096Z,13.40
2019-05-28T01:04:25.620Z,13.40
2019-05-28T01:06:59.733Z,13.40
2019-05-28T01:09:27.345Z,13.40
2019-05-28T01:11:54.895Z,13.40
2019-05-28T01:14:22.733Z,13.30
2019-05-28T01:16:50.576Z,13.30
2019-05-28T01:19:18.104Z,13.30
2019-05-28T01:21:45.730Z,13.20
2019-05-28T01:24:13.505Z,13.20
2019-05-28T01:26:41.017Z,13.20
2019-05-28T01:29:08.769Z,13.10
2019-05-28T01:31:36.449Z,13.00
2019-05-28T01:34:04.127Z,13.00
2019-05-28T01:36:31.845Z,12.90
2019-05-28T01:38:59.416Z,12.90
2019-05-28T01:41:27.159Z,12.90
2019-05-28T01:43:54.876Z,12.80
2019-05-28T01:46:22.454Z,12.80
2019-05-28T01:48:50.007Z,12.90
2019-05-28T01:51:17.572Z,12.90
2019-05-28T01:53:45.248Z,12.80
2019-05-28T01:56:12.781Z,12.80
2019-05-28T01:58:40.367Z,12.80
2019-05-28T02:01:12.937Z,12.80
2019-05-28T02:03:37.618Z,12.70
2019-05-28T02:06:05.332Z,12.70
2019-05-28T02:08:32.855Z,12.70
2019-05-28T02:11:00.386Z,12.80
2019-05-28T02:13:27.961Z,12.70
2019-05-28T02:15:55.567Z,12.80
2019-05-28T02:18:23.075Z,12.80
2019-05-28T02:20:50.662Z,12.80
2019-05-28T02:23:18.615Z,12.80
2019-05-28T02:25:46.199Z,12.80
2019-05-28T02:28:13.831Z,12.80
2019-05-28T02:30:42.458Z,12.80
2019-05-28T02:33:10.080Z,12.80
2019-05-28T02:35:37.676Z,12.80
2019-05-28T02:38:05.240Z,12.80
2019-05-28T02:40:33.181Z,12.90
2019-05-28T02:43:00.790Z,12.90
2019-05-28T02:45:28.310Z,12.90
2019-05-28T02:47:55.855Z,12.90
2019-05-28T02:50:50.410Z,12.90
2019-05-28T02:53:17.941Z,12.90
2019-05-28T02:55:46.269Z,13.00
2019-05-28T02:58:14.951Z,13.00
2019-05-28T03:00:43.742Z,12.90
2019-05-28T03:03:13.378Z,12.90
2019-05-28T03:05:42.208Z,12.90
2019-05-28T03:08:11.371Z,12.90
2019-05-28T03:11:01.191Z,12.90
2019-05-28T03:13:08.412Z,12.90
2019-05-28T03:15:39.466Z,12.90
2019-05-28T03:18:09.555Z,12.90
2019-05-28T03:20:38.863Z,13.00
2019-05-28T03:23:08.346Z,13.00
2019-05-28T03:25:38.759Z,12.90
2019-05-28T03:28:06.447Z,12.90
2019-05-28T03:30:33.998Z,12.90
2019-05-28T03:33:01.899Z,12.90
2019-05-28T03:35:29.457Z,12.90
2019-05-28T03:37:57.706Z,12.90
2019-05-28T03:40:39.937Z,13.00
2019-05-28T03:43:07.556Z,13.00
2019-05-28T03:45:35.120Z,13.00
2019-05-28T03:48:02.643Z,13.00
2019-05-28T03:50:30.209Z,13.00
2019-05-28T03:52:57.815Z,13.00
2019-05-28T03:55:25.364Z,13.00
2019-05-28T03:57:52.904Z,13.00
2019-05-28T04:00:20.535Z,13.00
2019-05-28T04:02:48.075Z,13.10
2019-05-28T04:05:15.587Z,13.10
2019-05-28T04:07:43.151Z,13.10
2019-05-28T04:10:10.844Z,13.10
2019-05-28T04:12:38.411Z,13.10
2019-05-28T04:15:06.399Z,13.10
2019-05-28T04:17:33.967Z,13.10
2019-05-28T04:20:01.504Z,13.00
2019-05-28T04:22:29.022Z,13.00
2019-05-28T04:24:56.490Z,13.00
2019-05-28T04:27:23.968Z,13.00
2019-05-28T04:29:51.659Z,13.00
2019-05-28T04:32:19.164Z,13.00
2019-05-28T04:34:46.646Z,13.00
2019-05-28T04:37:14.155Z,13.00
2019-05-28T04:39:41.688Z,13.00
2019-05-28T04:42:09.143Z,12.90
2019-05-28T04:44:36.739Z,12.90
2019-05-28T04:47:08.302Z,12.90
2019-05-28T04:49:33.887Z,13.00
2019-05-28T04:52:01.353Z,13.00
2019-05-28T04:54:28.844Z,13.00
2019-05-28T04:56:56.342Z,13.00
2019-05-28T04:59:23.822Z,13.00
2019-05-28T05:01:51.345Z,13.10
2019-05-28T05:04:19.132Z,13.10
2019-05-28T05:06:46.657Z,13.10
2019-05-28T05:09:14.215Z,13.10
2019-05-28T05:11:41.683Z,13.10
2019-05-28T05:14:09.217Z,13.20
2019-05-28T05:16:37.043Z,13.30
2019-05-28T05:19:04.600Z,13.40
2019-05-28T05:21:35.511Z,13.50
2019-05-28T05:24:01.398Z,13.50
2019-05-28T05:26:29.195Z,13.60
2019-05-28T05:28:56.709Z,13.60
2019-05-28T05:31:24.833Z,13.60
2019-05-28T05:33:52.776Z,13.70
2019-05-28T05:36:20.633Z,13.70
2019-05-28T05:38:48.126Z,13.80
2019-05-28T05:41:15.663Z,13.80
2019-05-28T05:43:43.265Z,13.60
2019-05-28T05:46:11.161Z,13.80
2019-05-28T05:48:39.063Z,14.00
2019-05-28T05:51:07.422Z,13.90
2019-05-28T05:53:35.741Z,14.10
2019-05-28T05:56:03.313Z,14.10
2019-05-28T05:58:31.629Z,14.10
2019-05-28T06:00:59.535Z,14.10
2019-05-28T06:03:39.907Z,14.10
2019-05-28T06:05:56.874Z,14.20
2019-05-28T06:08:24.813Z,14.30
2019-05-28T06:10:52.805Z,14.40
2019-05-28T06:13:21.437Z,14.60
2019-05-28T06:15:49.355Z,14.80
2019-05-28T06:18:17.346Z,15.00
2019-05-28T06:20:46.359Z,15.00
2019-05-28T06:23:14.354Z,15.10
2019-05-28T06:25:41.951Z,15.20
2019-05-28T06:28:10.798Z,15.20
2019-05-28T06:30:38.752Z,15.60
2019-05-28T06:33:06.266Z,15.80
2019-05-28T06:35:33.955Z,15.80
2019-05-28T06:38:01.583Z,15.80
2019-05-28T06:40:29.803Z,15.60
2019-05-28T06:42:57.844Z,15.70
2019-05-28T06:45:25.781Z,15.30
2019-05-28T06:47:53.829Z,15.30
2019-05-28T06:50:21.887Z,15.00
2019-05-28T06:52:50.010Z,15.10
2019-05-28T06:55:17.575Z,15.20
2019-05-28T06:57:45.075Z,15.10
2019-05-28T07:00:14.529Z,15.10
2019-05-28T07:02:42.168Z,15.20
2019-05-28T07:05:09.760Z,15.30
2019-05-28T07:07:37.252Z,15.30
2019-05-28T07:10:04.987Z,15.50
2019-05-28T07:12:32.534Z,15.30
2019-05-28T07:15:00.160Z,15.40
2019-05-28T07:17:27.723Z,15.70
2019-05-28T07:19:55.296Z,15.40
2019-05-28T07:22:22.797Z,15.70
2019-05-28T07:24:50.364Z,15.80
2019-05-28T07:27:17.881Z,15.80
2019-05-28T07:29:45.404Z,15.70
2019-05-28T07:32:12.893Z,15.70
2019-05-28T07:34:40.418Z,15.70
2019-05-28T07:37:07.927Z,15.60
2019-05-28T07:39:35.440Z,15.50
2019-05-28T07:42:03.354Z,15.60
2019-05-28T07:44:31.304Z,15.80
2019-05-28T07:46:58.833Z,15.80
2019-05-28T07:49:26.340Z,15.60
2019-05-28T07:51:53.862Z,15.40
2019-05-28T07:54:21.367Z,15.60
2019-05-28T07:56:48.933Z,15.80
2019-05-28T07:59:16.410Z,15.80
2019-05-28T08:01:43.940Z,15.90
2019-05-28T08:04:11.544Z,16.00
2019-05-28T08:06:53.835Z,15.60
2019-05-28T08:09:08.567Z,16.00
2019-05-28T08:11:36.117Z,15.80
2019-05-28T08:14:03.966Z,15.80
2019-05-28T08:16:31.942Z,15.90
2019-05-28T08:18:59.434Z,16.00
2019-05-28T08:21:27.123Z,16.00
2019-05-28T08:23:54.677Z,16.10
2019-05-28T08:26:22.204Z,15.80
2019-05-28T08:28:49.719Z,16.20
2019-05-28T08:31:20.969Z,16.30
2019-05-28T08:33:46.699Z,16.60
2019-05-28T08:36:14.216Z,16.70
2019-05-28T08:38:41.715Z,16.70
2019-05-28T08:41:09.281Z,16.60
2019-05-28T08:43:36.787Z,16.30
2019-05-28T08:46:04.298Z,16.40
2019-05-28T08:48:31.831Z,16.60
2019-05-28T08:50:59.610Z,17.00
2019-05-28T08:53:27.218Z,16.80
2019-05-28T08:55:54.693Z,16.70
2019-05-28T08:58:22.209Z,16.70
2019-05-28T09:00:49.724Z,16.60
2019-05-28T09:03:17.230Z,17.00
2019-05-28T09:05:44.723Z,16.70
2019-05-28T09:08:12.318Z,17.00
2019-05-28T09:10:39.828Z,17.10
2019-05-28T09:13:07.319Z,17.60
2019-05-28T09:15:35.167Z,17.40
2019-05-28T09:18:03.207Z,17.20
2019-05-28T09:20:30.904Z,17.40
2019-05-28T09:22:58.488Z,17.00
2019-05-28T09:25:26.517Z,17.30
2019-05-28T09:27:54.060Z,18.10
2019-05-28T09:30:21.771Z,18.50
2019-05-28T09:32:49.495Z,18.40
2019-05-28T09:35:17.414Z,18.10
2019-05-28T09:37:44.931Z,17.60
2019-05-28T09:40:12.456Z,16.80
2019-05-28T09:42:39.964Z,16.40
2019-05-28T09:45:21.911Z,16.10
2019-05-28T09:47:37.688Z,16.10
2019-05-28T09:50:05.531Z,15.80
2019-05-28T09:52:33.054Z,15.60
2019-05-28T09:55:00.642Z,15.10
2019-05-28T09:57:28.138Z,14.80
2019-05-28T09:59:55.686Z,14.60
2019-05-28T10:02:23.268Z,14.50
2019-05-28T10:04:51.086Z,14.20
2019-05-28T10:07:19.169Z,13.90
2019-05-28T10:09:46.680Z,13.80
2019-05-28T10:12:14.209Z,13.70
2019-05-28T10:14:44.296Z,13.80
2019-05-28T10:17:11.084Z,13.90
2019-05-28T10:19:38.594Z,13.90
2019-05-28T10:22:06.162Z,14.00
2019-05-28T10:24:33.665Z,14.30
2019-05-28T10:27:01.242Z,14.50
2019-05-28T10:29:28.855Z,14.80
2019-05-28T10:31:56.386Z,14.80
2019-05-28T10:34:23.966Z,15.00
2019-05-28T10:36:51.628Z,15.60
2019-05-28T10:39:19.175Z,15.80
2019-05-28T10:41:46.748Z,15.90
2019-05-28T10:44:14.380Z,16.00
2019-05-28T10:46:41.890Z,16.40
2019-05-28T10:49:09.392Z,16.30
2019-05-28T10:51:36.964Z,16.40
2019-05-28T10:54:06.239Z,16.60
2019-05-28T10:56:33.800Z,16.10
2019-05-28T10:59:01.321Z,16.50
2019-05-28T11:01:28.858Z,16.60
2019-05-28T11:03:56.360Z,16.60
2019-05-28T11:06:23.839Z,16.80
2019-05-28T11:08:51.402Z,16.70
2019-05-28T11:11:19.196Z,17.10
2019-05-28T11:13:52.894Z,16.70
2019-05-28T11:16:16.139Z,17.60
2019-05-28T11:18:43.629Z,18.10
2019-05-28T11:21:11.604Z,18.00
2019-05-28T11:23:39.117Z,17.60
2019-05-28T11:26:06.659Z,18.00
2019-05-28T11:28:34.666Z,18.00
2019-05-28T11:31:02.306Z,17.40
2019-05-28T11:33:29.841Z,18.30
2019-05-28T11:35:57.321Z,18.60
2019-05-28T11:38:24.898Z,17.60
2019-05-28T11:40:52.501Z,18.10
2019-05-28T11:43:20.022Z,18.20
2019-05-28T11:45:47.533Z,19.00
2019-05-28T11:48:15.229Z,19.40
2019-05-28T11:50:42.766Z,18.90
2019-05-28T11:53:10.330Z,19.20
2019-05-28T11:55:37.830Z,19.50
2019-05-28T11:58:05.408Z,19.50
2019-05-28T12:00:33.519Z,19.50
2019-05-28T12:03:01.022Z,19.00
2019-05-28T12:05:28.674Z,18.90
2019-05-28T12:07:56.260Z,19.00
2019-05-28T12:10:24.452Z,18.60
2019-05-28T12:12:51.948Z,18.40
2019-05-28T12:15:20.075Z,18.60
2019-05-28T12:17:47.637Z,18.10
2019-05-28T12:20:17.951Z,18.20
2019-05-28T12:22:45.654Z,17.50
2019-05-28T12:25:13.889Z,17.30
2019-05-28T12:27:41.440Z,17.00
2019-05-28T12:30:09.791Z,16.50
2019-05-28T12:32:37.494Z,16.30
2019-05-28T12:35:06.436Z,16.40
2019-05-28T12:37:47.368Z,16.40
2019-05-28T12:40:04.268Z,16.30
2019-05-28T12:42:31.946Z,16.20
2019-05-28T12:45:09.287Z,16.00
2019-05-28T12:47:29.248Z,15.80
2019-05-28T12:50:14.444Z,15.90
2019-05-28T12:52:26.138Z,16.20
2019-05-28T12:54:53.711Z,16.50
2019-05-28T12:57:21.247Z,16.50
2019-05-28T12:59:49.174Z,16.40
2019-05-28T13:02:17.545Z,16.10
2019-05-28T13:04:45.170Z,15.70
2019-05-28T13:07:12.910Z,15.80
2019-05-28T13:09:40.444Z,15.80
2019-05-28T13:12:08.134Z,15.80
2019-05-28T13:14:35.995Z,15.90
2019-05-28T13:17:03.573Z,15.60
2019-05-28T13:19:31.169Z,16.00
2019-05-28T13:21:58.829Z,16.00
2019-05-28T13:24:26.724Z,15.90
2019-05-28T13:26:54.298Z,16.20
2019-05-28T13:29:24.018Z,16.40
2019-05-28T13:31:52.177Z,16.70
2019-05-28T13:34:19.686Z,16.80
2019-05-28T13:36:47.227Z,17.00
2019-05-28T13:39:14.797Z,16.70
2019-05-28T13:41:43.222Z,17.20
2019-05-28T13:44:10.793Z,17.70
2019-05-28T13:46:38.427Z,18.00
2019-05-28T13:49:06.115Z,18.00
2019-05-28T13:51:33.687Z,19.20
2019-05-28T13:54:01.785Z,19.20
2019-05-28T13:56:29.296Z,19.30
2019-05-28T13:58:57.396Z,19.70
2019-05-28T14:01:25.878Z,20.30
2019-05-28T14:03:53.568Z,19.40
2019-05-28T14:06:21.211Z,18.40
2019-05-28T14:08:48.728Z,18.80
2019-05-28T14:11:16.781Z,19.50
2019-05-28T14:13:44.347Z,20.20
2019-05-28T14:16:11.922Z,18.70
2019-05-28T14:18:39.435Z,18.00
2019-05-28T14:21:06.994Z,17.40
2019-05-28T14:23:34.559Z,17.00
2019-05-28T14:26:02.148Z,16.60
2019-05-28T14:28:29.698Z,16.80
2019-05-28T14:31:00.362Z,16.60
2019-05-28T14:33:26.875Z,16.60
2019-05-28T14:35:54.473Z,16.40
2019-05-28T14:38:21.969Z,16.20
2019-05-28T14:40:49.537Z,15.60
2019-05-28T14:43:17.097Z,15.50
2019-05-28T14:45:44.734Z,15.20
2019-05-28T14:48:12.244Z,15.30
2019-05-28T14:50:39.739Z,15.20
2019-05-28T14:53:07.227Z,15.10
2019-05-28T14:55:34.778Z,15.00
2019-05-28T14:58:05.336Z,14.60
2019-05-28T15:00:32.112Z,14.50
2019-05-28T15:02:59.924Z,14.30
2019-05-28T15:05:27.402Z,14.20
2019-05-28T15:07:54.884Z,14.30
2019-05-28T15:10:22.882Z,14.60
2019-05-28T15:12:50.443Z,14.80
2019-05-28T15:15:34.429Z,14.90
2019-05-28T15:17:47.495Z,14.90
2019-05-28T15:20:15.516Z,15.00
2019-05-28T15:22:43.040Z,14.80
2019-05-28T15:25:11.328Z,14.80
2019-05-28T15:27:38.798Z,14.90
2019-05-28T15:30:07.015Z,15.20
2019-05-28T15:32:34.547Z,15.30
2019-05-28T15:35:02.457Z,15.60
2019-05-28T15:37:29.983Z,16.50
2019-05-28T15:39:57.534Z,16.80
2019-05-28T15:42:25.053Z,17.00
2019-05-28T15:44:52.590Z,16.90
2019-05-28T15:47:20.151Z,16.70
2019-05-28T15:49:47.650Z,16.70
2019-05-28T15:52:15.701Z,17.10
2019-05-28T15:54:43.280Z,17.30
2019-05-28T15:57:10.802Z,17.70
2019-05-28T15:59:38.397Z,18.10
2019-05-28T16:02:05.969Z,19.20
2019-05-28T16:04:33.613Z,19.60
2019-05-28T16:07:01.628Z,19.60
2019-05-28T16:09:29.283Z,19.40
2019-05-28T16:11:57.022Z,19.20
2019-05-28T16:14:24.578Z,19.30
2019-05-28T16:16:52.109Z,19.40
2019-05-28T16:19:19.682Z,19.70
2019-05-28T16:21:47.180Z,20.50
2019-05-28T16:24:14.728Z,20.30
2019-05-28T16:26:42.312Z,20.60
2019-05-28T16:29:09.919Z,19.80
2019-05-28T16:31:37.613Z,19.20
2019-05-28T16:34:05.167Z,18.80
2019-05-28T16:36:32.763Z,18.40
2019-05-28T16:39:00.288Z,18.30
2019-05-28T16:41:28.878Z,17.90
2019-05-28T16:43:56.413Z,17.70
2019-05-28T16:46:23.999Z,17.60
2019-05-28T16:48:51.560Z,17.30
2019-05-28T16:51:19.136Z,17.00
2019-05-28T16:53:46.675Z,16.60
2019-05-28T16:56:14.382Z,16.40
2019-05-28T16:58:41.864Z,16.20
2019-05-28T17:01:21.688Z,15.70
2019-05-28T17:03:38.663Z,14.20
2019-05-28T17:06:06.154Z,13.30
2019-05-28T17:08:34.144Z,12.70
2019-05-28T17:11:01.639Z,12.40
2019-05-28T17:13:29.129Z,12.40
2019-05-28T17:15:56.663Z,12.40
2019-05-28T17:18:24.180Z,12.50
2019-05-28T17:20:51.762Z,12.60
2019-05-28T17:23:19.244Z,12.70
2019-05-28T17:25:46.774Z,12.90
2019-05-28T17:28:14.363Z,13.10
2019-05-28T17:30:42.274Z,13.10
2019-05-28T17:33:09.791Z,13.40
2019-05-28T17:35:37.306Z,13.70
2019-05-28T17:38:04.841Z,13.80
2019-05-28T17:40:47.516Z,13.80
2019-05-28T17:43:02.504Z,13.80
2019-05-28T17:45:30.023Z,13.80
2019-05-28T17:47:57.527Z,13.90
2019-05-28T17:50:25.552Z,14.10
2019-05-28T17:52:53.042Z,14.10
2019-05-28T17:55:20.678Z,14.40
2019-05-28T17:57:48.400Z,14.70
2019-05-28T18:00:15.988Z,14.50
2019-05-28T18:02:43.455Z,14.10
2019-05-28T18:05:12.258Z,13.80
2019-05-28T18:07:39.782Z,13.70
2019-05-28T18:10:07.430Z,13.70
2019-05-28T18:12:35.009Z,13.50
2019-05-28T18:15:02.505Z,13.40
2019-05-28T18:17:30.065Z,13.20
2019-05-28T18:19:57.621Z,13.10
2019-05-28T18:22:25.132Z,13.10
2019-05-28T18:24:52.639Z,13.00
2019-05-28T18:27:20.170Z,13.00
2019-05-28T18:29:47.662Z,12.90
2019-05-28T18:32:15.243Z,12.90
2019-05-28T18:34:42.765Z,12.80
2019-05-28T18:37:10.246Z,12.70
2019-05-28T18:39:37.760Z,12.70
2019-05-28T18:42:05.277Z,12.60
2019-05-28T18:44:33.202Z,12.60
2019-05-28T18:47:01.099Z,12.70
2019-05-28T18:49:28.595Z,12.60
2019-05-28T18:51:56.125Z,12.60
2019-05-28T18:54:23.591Z,12.50
2019-05-28T18:56:51.096Z,12.50
2019-05-28T18:59:18.633Z,12.40
2019-05-28T19:01:46.096Z,12.40
2019-05-28T19:04:13.916Z,12.40
2019-05-28T19:06:41.453Z,12.30
2019-05-28T19:09:11.313Z,12.30
2019-05-28T19:11:38.518Z,12.20
2019-05-28T19:14:06.102Z,12.20
2019-05-28T19:16:33.612Z,12.20
2019-05-28T19:19:02.129Z,12.20
2019-05-28T19:21:29.668Z,12.10
2019-05-28T19:23:57.499Z,12.10
2019-05-28T19:26:25.007Z,12.10
2019-05-28T19:28:52.641Z,12.00
2019-05-28T19:31:20.230Z,11.90
2019-05-28T19:33:48.059Z,11.80
2019-05-28T19:36:17.010Z,11.80
2019-05-28T19:38:46.043Z,11.70
2019-05-28T19:41:14.082Z,11.60
2019-05-28T19:43:41.855Z,11.50
2019-05-28T19:46:09.323Z,11.50
2019-05-28T19:48:37.091Z,11.40
2019-05-28T19:51:05.017Z,11.50
2019-05-28T19:53:32.533Z,11.50
2019-05-28T19:56:00.010Z,11.50
2019-05-28T19:58:27.489Z,11.60
2019-05-28T20:00:54.983Z,11.50
2019-05-28T20:03:22.436Z,11.40
2019-05-28T20:05:49.913Z,11.40
2019-05-28T20:08:17.668Z,11.50
2019-05-28T20:10:45.142Z,11.50
2019-05-28T20:13:12.927Z,11.50
2019-05-28T20:15:40.423Z,11.40
2019-05-28T20:18:07.899Z,11.40
2019-05-28T20:20:35.380Z,11.30
2019-05-28T20:23:02.812Z,11.30
2019-05-28T20:25:30.300Z,11.20
2019-05-28T20:27:57.793Z,11.10
2019-05-28T20:30:25.398Z,11.00
2019-05-28T20:32:55.099Z,11.00
2019-05-28T20:35:22.412Z,11.10
2019-05-28T20:37:49.903Z,11.00
2019-05-28T20:40:18.611Z,10.90
2019-05-28T20:42:46.192Z,11.00
2019-05-28T20:45:14.870Z,11.00
2019-05-28T20:47:42.586Z,11.00
2019-05-28T20:50:11.734Z,11.00
2019-05-28T20:52:39.609Z,11.00
2019-05-28T20:55:07.652Z,10.90
2019-05-28T20:57:35.171Z,11.00
2019-05-28T21:00:03.112Z,10.90
2019-05-28T21:02:30.660Z,10.90
2019-05-28T21:04:58.909Z,10.80
2019-05-28T21:07:26.494Z,10.80
2019-05-28T21:09:54.568Z,10.80
2019-05-28T21:12:22.155Z,10.80
2019-05-28T21:14:50.928Z,10.80
2019-05-28T21:17:18.648Z,10.80
2019-05-28T21:19:46.411Z,10.70
2019-05-28T21:22:26.091Z,10.70
2019-05-28T21:24:43.613Z,10.70
2019-05-28T21:27:11.101Z,10.70
2019-05-28T21:29:38.600Z,10.70
2019-05-28T21:32:08.496Z,10.70
2019-05-28T21:34:36.256Z,10.70
2019-05-28T21:37:06.604Z,10.60
2019-05-28T21:39:45.443Z,10.60
2019-05-28T21:42:23.401Z,10.60
2019-05-28T21:44:51.933Z,10.60
2019-05-28T21:47:23.149Z,10.60
2019-05-28T21:49:59.417Z,10.60
2019-05-28T21:52:28.217Z,10.50
2019-05-28T21:54:57.090Z,10.40
2019-05-28T21:57:24.635Z,10.40
2019-05-28T21:59:52.107Z,10.30
2019-05-28T22:02:19.991Z,10.40
2019-05-28T22:04:47.509Z,10.40
2019-05-28T22:07:14.995Z,10.40
2019-05-28T22:09:42.475Z,10.40
2019-05-28T22:12:10.377Z,10.40
2019-05-28T22:14:38.038Z,10.40
2019-05-28T22:17:05.799Z,10.50
2019-05-28T22:19:33.274Z,10.50
2019-05-28T22:22:00.804Z,10.50
2019-05-28T22:24:28.234Z,10.50
2019-05-28T22:26:56.347Z,10.40
2019-05-28T22:29:23.817Z,10.40
2019-05-28T22:31:51.599Z,10.40
2019-05-28T22:34:19.106Z,10.40
2019-05-28T22:36:46.567Z,10.40
2019-05-28T22:39:14.378Z,10.40
2019-05-28T22:41:41.871Z,10.30
2019-05-28T22:44:09.665Z,10.30
2019-05-28T22:46:37.135Z,10.30
2019-05-28T22:49:05.376Z,10.30
2019-05-28T22:51:32.960Z,10.30
2019-05-28T22:54:01.886Z,10.30
2019-05-28T22:56:29.381Z,10.30
2019-05-28T22:58:56.824Z,10.20
2019-05-28T23:01:24.760Z,10.30
2019-05-28T23:03:52.269Z,10.30
2019-05-28T23:06:19.847Z,10.30
2019-05-28T23:08:47.327Z,10.30
2019-05-28T23:11:14.749Z,10.30
2019-05-28T23:13:46.894Z,10.30
2019-05-28T23:16:12.434Z,10.30
2019-05-28T23:18:39.896Z,10.30
2019-05-28T23:21:07.444Z,10.30
2019-05-28T23:23:34.903Z,10.30
2019-05-28T23:26:03.212Z,10.30
2019-05-28T23:28:30.713Z,10.30
2019-05-28T23:30:58.503Z,10.30
2019-05-28T23:33:26.267Z,10.30
2019-05-28T23:35:53.708Z,10.30
2019-05-28T23:38:21.216Z,10.30
2019-05-28T23:40:48.727Z,10.30
2019-05-28T23:43:16.219Z,10.30
2019-05-28T23:45:43.679Z,10.40
2019-05-28T23:48:14.962Z,10.40
2019-05-28T23:50:40.746Z,10.50
2019-05-28T23:53:08.201Z,10.50
2019-05-28T23:55:35.668Z,10.50
2019-05-28T23:58:03.190Z,10.50
